OPKCOMSJ

Guest
Details From OPKC - Karachi Jinnah Intl
To OMSJ - Sharjah Intl
Flight Number -
Tags Generated
Created
Modified
Stats Distance 634 nm / 1,174 km
Max Altitude 0 ft / 0 m
Waypoints 4
Social Downloads 1
Likes 0
Share VATSIM

Download

Looking for another format? Having issues loading an existing format? Contact us
Advertisement - Login to hide

Notes

Generated

Route

OPKC EGRON TUKLA OMSJ

ID Type Via Altitude Latitude Longitude Leg Dist Tot Dist Heading (true) Name
O OPKC APT - 0 ft / 0 m 24.90471˚ 67.14755˚ - 0 nm - -
EGRON FIX - 0 ft / 0 m 25.07889˚ 61.54583˚ 305 nm 305 nm 273° / 271° -
TUKLA FIX - 0 ft / 0 m 25.32667˚ 55.66944˚ 319 nm 624 nm 274° / 271° -
O OMSJ APT - 0 ft / 0 m 25.33834˚ 55.50025˚ 9 nm 633 nm 274° / 274° -

Altitude Profile

Advertisement - Login to hide

Weather


0- 5 10 15 20 25 30 35+ Temperature / ° C

Clouds and Precipitation
Forecast for 2017-12-17 06:00 UTC. Updated an hour ago

Ground ~20,000 ft ~40,000 ft Winds

OPKC

Details ICAO OPKC (KHI)
Name Karachi Jinnah Intl
Region Pakistan
Timezone Asia/Karachi (UTC+5.0)
Stats Elevation 100 ft / 30 m (AMSL)
Location 24.906547° 67.160797°
Runways 2
Magnetic Variation 1.073° E

METAR

OPKC 170625Z 05018KT 2500 BLDU NSC 21/M02 Q1023 TEMPO 05015G25KT

Decode

TAF

Not found

Departure Runways

ID Width Length Bearing (true) Bearing (mag) Surface Threshold Offset Overrun Length
07L 151 ft / 46 m 10,451 ft / 3,186 m 74.40° 73.33° Concrete 0 ft / 0 m 1,000 ft / 305 m
07R 151 ft / 46 m 11,145 ft / 3,397 m 74.22° 73.15° Concrete 0 ft / 0 m 990 ft / 302 m
25L 151 ft / 46 m 11,145 ft / 3,397 m 254.24° 253.17° Concrete 0 ft / 0 m 625 ft / 191 m
25R 151 ft / 46 m 10,451 ft / 3,186 m 254.41° 253.34° Concrete 0 ft / 0 m 1,000 ft / 305 m

OMSJ

Details ICAO OMSJ (SHJ)
Name SHARJAH INTL
Region United Arab Emirates
Timezone Asia/Dubai (UTC+4.0)
Stats Elevation 111 ft / 34 m (AMSL)
Location 25.328587° 55.517218°
Runways 1
Magnetic Variation 2.044° E

METAR

OMSJ 170600Z 11018KT 9999 FEW035 21/15 Q1021

Decode

TAF

TAF OMSJ 170451Z 1706/1812 09008KT 8000 SCT040 PROB30 TEMPO 1708/1718 VRB20G30KT 3000 TSRA BLDU SCT040CB BECMG 1710/1712 02012KT BECMG 1716/1718 08008KT BECMG 1810/1812 34012KT

Decode

Destination Runways

ID Width Length Bearing (true) Bearing (mag) Surface Threshold Offset Overrun Length
12 148 ft / 45 m 13,266 ft / 4,043 m 122.45° 120.41° Asphalt 689 ft / 210 m 488 ft / 149 m
30 148 ft / 45 m 13,266 ft / 4,043 m 302.47° 300.43° Asphalt 984 ft / 300 m 488 ft / 149 m

Approach Navaids

Runway Type Ident Frequency Range Bearing (true) Bearing (mag) Slope Elevation
30 Localiser ISJ 109.70 MHz 18 nm / 33 km 302.45° 300.40° - 111 ft / 34 m (AMSL)
30 Glidescope ISJ 109.70 MHz 10 nm / 19 km 302.46° 300.42° 3.00° 111 ft / 34 m (AMSL)

Popular Alternatives